createdAt,value
2019-04-28T00:00:46.891Z,6.68
2019-04-28T00:01:46.887Z,6.65
2019-04-28T00:02:46.871Z,6.68
2019-04-28T00:03:46.860Z,6.68
2019-04-28T00:04:46.859Z,6.60
2019-04-28T00:05:46.838Z,6.60
2019-04-28T00:06:46.830Z,6.58
2019-04-28T00:07:46.816Z,6.54
2019-04-28T00:08:46.805Z,6.61
2019-04-28T00:09:46.805Z,6.64
2019-04-28T00:10:46.785Z,6.64
2019-04-28T00:11:46.776Z,6.58
2019-04-28T00:12:46.765Z,6.60
2019-04-28T00:13:46.756Z,6.61
2019-04-28T00:14:46.752Z,6.57
2019-04-28T00:15:46.732Z,6.54
2019-04-28T00:16:46.720Z,6.71
2019-04-28T00:17:46.709Z,6.69
2019-04-28T00:18:46.699Z,6.68
2019-04-28T00:19:46.700Z,6.78
2019-04-28T00:20:46.687Z,6.71
2019-04-28T00:21:46.668Z,6.57
2019-04-28T00:22:46.657Z,6.63
2019-04-28T00:23:46.644Z,6.53
2019-04-28T00:24:46.643Z,6.57
2019-04-28T00:25:46.625Z,6.51
2019-04-28T00:26:46.651Z,6.45
2019-04-28T00:27:46.602Z,6.51
2019-04-28T00:28:46.592Z,6.61
2019-04-28T00:29:46.591Z,6.60
2019-04-28T00:30:46.571Z,6.65
2019-04-28T00:31:46.560Z,6.58
2019-04-28T00:32:46.552Z,6.58
2019-04-28T00:33:46.545Z,6.63
2019-04-28T00:34:46.538Z,6.60
2019-04-28T00:35:46.518Z,6.68
2019-04-28T00:36:46.507Z,6.68
2019-04-28T00:37:46.497Z,6.65
2019-04-28T00:38:46.486Z,6.69
2019-04-28T00:39:46.500Z,6.73
2019-04-28T00:40:46.512Z,6.76
2019-04-28T00:41:46.463Z,6.72
2019-04-28T00:42:46.443Z,6.72
2019-04-28T00:43:46.436Z,6.65
2019-04-28T00:44:46.444Z,6.61
2019-04-28T00:45:46.409Z,6.75
2019-04-28T00:46:46.412Z,6.72
2019-04-28T00:47:46.388Z,6.69
2019-04-28T00:48:46.378Z,6.63
2019-04-28T00:49:46.370Z,6.60
2019-04-28T00:50:46.365Z,6.57
2019-04-28T00:51:46.354Z,6.71
2019-04-28T00:52:46.336Z,6.71
2019-04-28T00:53:46.325Z,6.71
2019-04-28T00:54:46.314Z,6.68
2019-04-28T00:55:46.315Z,6.68
2019-04-28T00:56:46.293Z,6.60
2019-04-28T00:57:46.287Z,6.55
2019-04-28T00:58:46.271Z,6.60
2019-04-28T00:59:56.675Z,6.65
2019-04-28T01:00:47.261Z,6.57
2019-04-28T01:01:46.241Z,6.61
2019-04-28T01:02:46.229Z,6.65
2019-04-28T01:03:46.224Z,6.72
2019-04-28T01:04:46.207Z,6.68
2019-04-28T01:05:46.206Z,6.65
2019-04-28T01:06:46.186Z,6.72
2019-04-28T01:07:46.176Z,6.75
2019-04-28T01:08:46.167Z,6.65
2019-04-28T01:09:46.166Z,6.68
2019-04-28T01:10:46.153Z,6.65
2019-04-28T01:11:46.133Z,6.71
2019-04-28T01:12:46.689Z,6.68
2019-04-28T01:13:46.110Z,6.72
2019-04-28T01:14:46.100Z,6.71
2019-04-28T01:15:46.112Z,6.65
2019-04-28T01:16:46.080Z,6.73
2019-04-28T01:17:46.069Z,6.57
2019-04-28T01:18:46.057Z,6.61
2019-04-28T01:19:46.047Z,6.57
2019-04-28T01:20:46.047Z,6.51
2019-04-28T01:21:46.038Z,6.45
2019-04-28T01:22:46.016Z,6.38
2019-04-28T01:23:46.007Z,6.32
2019-04-28T01:24:45.994Z,6.30
2019-04-28T01:25:45.993Z,6.21
2019-04-28T01:26:45.972Z,6.24
2019-04-28T01:27:45.963Z,6.20
2019-04-28T01:28:45.951Z,6.14
2019-04-28T01:29:45.940Z,6.17
2019-04-28T01:30:45.940Z,6.25
2019-04-28T01:31:45.919Z,6.19
2019-04-28T01:32:45.910Z,6.24
2019-04-28T01:33:45.903Z,6.21
2019-04-28T01:34:45.887Z,6.25
2019-04-28T01:35:45.887Z,6.25
2019-04-28T01:36:45.865Z,6.30
2019-04-28T01:37:45.863Z,6.38
2019-04-28T01:38:45.843Z,6.38
2019-04-28T01:39:45.839Z,6.50
2019-04-28T01:40:45.831Z,6.54
2019-04-28T01:41:45.814Z,6.53
2019-04-28T01:42:45.806Z,6.51
2019-04-28T01:43:45.790Z,6.57
2019-04-28T01:44:45.781Z,6.57
2019-04-28T01:45:45.802Z,6.60
2019-04-28T01:46:45.759Z,6.63
2019-04-28T01:47:45.747Z,6.61
2019-04-28T01:48:45.739Z,6.68
2019-04-28T01:49:45.730Z,6.71
2019-04-28T01:50:45.716Z,6.65
2019-04-28T01:51:45.724Z,6.65
2019-04-28T01:52:45.696Z,6.65
2019-04-28T01:53:45.686Z,6.71
2019-04-28T01:54:45.675Z,6.71
2019-04-28T01:55:45.663Z,6.79
2019-04-28T01:56:45.664Z,6.75
2019-04-28T01:57:45.650Z,6.81
2019-04-28T01:58:45.631Z,6.79
2019-04-28T01:59:45.620Z,6.79
2019-04-28T02:00:45.610Z,6.83
2019-04-28T02:01:45.610Z,6.76
2019-04-28T02:02:45.588Z,6.68
2019-04-28T02:03:45.587Z,6.68
2019-04-28T02:04:45.568Z,6.65
2019-04-28T02:05:45.557Z,6.69
2019-04-28T02:06:45.555Z,6.76
2019-04-28T02:07:45.535Z,6.79
2019-04-28T02:08:45.526Z,6.79
2019-04-28T02:09:45.520Z,6.79
2019-04-28T02:10:45.505Z,6.76
2019-04-28T02:11:45.505Z,6.83
2019-04-28T02:12:45.483Z,6.81
2019-04-28T02:13:45.478Z,6.81
2019-04-28T02:14:45.460Z,6.76
2019-04-28T02:15:45.454Z,6.76
2019-04-28T02:16:45.449Z,6.87
2019-04-28T02:17:45.427Z,6.86
2019-04-28T02:18:45.421Z,6.83
2019-04-28T02:19:45.411Z,6.89
2019-04-28T02:20:45.396Z,6.86
2019-04-28T02:21:45.415Z,6.91
2019-04-28T02:22:45.374Z,6.96
2019-04-28T02:23:45.371Z,6.94
2019-04-28T02:24:45.359Z,6.97
2019-04-28T02:25:45.349Z,6.94
2019-04-28T02:26:45.357Z,6.96
2019-04-28T02:27:45.334Z,6.86
2019-04-28T02:28:45.312Z,6.93
2019-04-28T02:29:45.304Z,6.93
2019-04-28T02:30:49.352Z,6.93
2019-04-28T02:31:46.305Z,6.93
2019-04-28T02:32:45.273Z,6.93
2019-04-28T02:33:45.274Z,7.01
2019-04-28T02:34:45.259Z,7.04
2019-04-28T02:35:45.239Z,6.97
2019-04-28T02:36:45.269Z,6.97
2019-04-28T02:37:45.223Z,6.96
2019-04-28T02:38:45.209Z,6.97
2019-04-28T02:39:45.204Z,6.97
2019-04-28T02:40:45.190Z,6.97
2019-04-28T02:41:45.179Z,6.91
2019-04-28T02:42:45.173Z,6.99
2019-04-28T02:43:45.153Z,6.93
2019-04-28T02:44:45.143Z,6.90
2019-04-28T02:45:45.139Z,6.87
2019-04-28T02:46:45.121Z,7.01
2019-04-28T02:47:45.128Z,6.96
2019-04-28T02:48:45.102Z,6.96
2019-04-28T02:49:45.095Z,6.99
2019-04-28T02:50:45.076Z,7.05
2019-04-28T02:51:45.080Z,7.05
2019-04-28T02:52:45.064Z,7.00
2019-04-28T02:53:45.046Z,7.01
2019-04-28T02:54:45.040Z,6.97
2019-04-28T02:55:45.027Z,6.90
2019-04-28T02:56:45.015Z,6.96
2019-04-28T02:57:45.044Z,6.90
2019-04-28T02:58:44.994Z,6.96
2019-04-28T02:59:45.106Z,7.01
2019-04-28T03:01:01.383Z,6.99
2019-04-28T03:01:45.964Z,6.93
2019-04-28T03:02:44.963Z,6.90
2019-04-28T03:03:44.949Z,6.93
2019-04-28T03:04:44.935Z,6.89
2019-04-28T03:05:44.923Z,6.99
2019-04-28T03:06:44.917Z,6.91
2019-04-28T03:07:44.912Z,6.96
2019-04-28T03:08:44.885Z,6.81
2019-04-28T03:09:44.881Z,6.90
2019-04-28T03:10:44.866Z,7.00
2019-04-28T03:11:44.854Z,6.79
2019-04-28T03:12:44.863Z,6.82
2019-04-28T03:13:44.836Z,6.83
2019-04-28T03:14:44.824Z,6.82
2019-04-28T03:15:44.819Z,6.78
2019-04-28T03:16:44.802Z,6.78
2019-04-28T03:17:44.810Z,6.86
2019-04-28T03:18:44.783Z,6.79
2019-04-28T03:19:44.774Z,6.86
2019-04-28T03:20:44.755Z,6.79
2019-04-28T03:21:44.752Z,6.76
2019-04-28T03:22:44.759Z,6.81
2019-04-28T03:23:44.726Z,6.68
2019-04-28T03:24:44.711Z,6.69
2019-04-28T03:25:44.702Z,6.60
2019-04-28T03:26:44.697Z,6.50
2019-04-28T03:27:44.711Z,6.53
2019-04-28T03:28:44.669Z,6.53
2019-04-28T03:29:44.662Z,6.42
2019-04-28T03:30:44.657Z,6.32
2019-04-28T03:32:10.063Z,6.35
2019-04-28T03:32:53.695Z,6.36
2019-04-28T03:33:49.187Z,6.25
2019-04-28T03:34:45.627Z,6.27
2019-04-28T03:35:44.595Z,6.24
2019-04-28T03:36:44.589Z,6.20
2019-04-28T03:37:44.597Z,6.20
2019-04-28T03:38:44.563Z,6.16
2019-04-28T03:39:44.555Z,6.21
2019-04-28T03:40:44.543Z,6.13
2019-04-28T03:41:44.530Z,6.10
2019-04-28T03:42:44.525Z,5.96
2019-04-28T03:43:44.523Z,6.03
2019-04-28T03:44:44.499Z,6.01
2019-04-28T03:45:44.490Z,6.03
2019-04-28T03:46:44.477Z,6.06
2019-04-28T03:47:44.466Z,5.99
2019-04-28T03:48:44.464Z,5.99
2019-04-28T03:49:44.443Z,6.01
2019-04-28T03:50:44.440Z,5.93
2019-04-28T03:51:44.429Z,6.06
2019-04-28T03:52:44.427Z,6.02
2019-04-28T03:53:44.409Z,6.01
2019-04-28T03:54:44.389Z,5.98
2019-04-28T03:55:44.382Z,6.03
2019-04-28T03:56:44.368Z,5.99
2019-04-28T03:57:44.363Z,5.99
2019-04-28T03:58:44.359Z,5.85
2019-04-28T03:59:44.335Z,5.84
2019-04-28T04:00:44.328Z,5.78
2019-04-28T04:01:55.926Z,5.73
2019-04-28T04:02:45.304Z,5.69
2019-04-28T04:03:44.311Z,5.66
2019-04-28T04:04:44.281Z,5.49
2019-04-28T04:05:44.272Z,5.51
2019-04-28T04:06:44.262Z,5.32
2019-04-28T04:07:44.249Z,5.33
2019-04-28T04:08:44.249Z,5.29
2019-04-28T04:09:44.231Z,5.38
2019-04-28T04:10:44.218Z,5.37
2019-04-28T04:11:44.210Z,5.44
2019-04-28T04:12:44.220Z,5.51
2019-04-28T04:13:44.197Z,5.56
2019-04-28T04:14:44.175Z,5.55
2019-04-28T04:15:48.654Z,5.69
2019-04-28T04:16:45.152Z,5.78
2019-04-28T04:17:44.142Z,5.77
2019-04-28T04:18:44.144Z,5.87
2019-04-28T04:19:44.122Z,5.95
2019-04-28T04:20:44.129Z,5.98
2019-04-28T04:21:44.105Z,6.06
2019-04-28T04:22:44.090Z,5.99
2019-04-28T04:23:44.092Z,6.02
2019-04-28T04:24:44.067Z,6.05
2019-04-28T04:25:44.056Z,6.10
2019-04-28T04:26:44.046Z,6.02
2019-04-28T04:27:44.047Z,6.02
2019-04-28T04:28:44.040Z,6.06
2019-04-28T04:29:44.013Z,6.02
2019-04-28T04:30:44.004Z,5.98
2019-04-28T04:31:43.993Z,6.10
2019-04-28T04:32:43.987Z,6.16
2019-04-28T04:33:43.985Z,6.24
2019-04-28T04:34:43.962Z,6.24
2019-04-28T04:35:43.953Z,6.21
2019-04-28T04:36:43.941Z,6.20
2019-04-28T04:37:43.928Z,6.16
2019-04-28T04:38:46.422Z,6.24
2019-04-28T04:39:43.907Z,6.28
2019-04-28T04:40:43.896Z,6.25
2019-04-28T04:41:44.042Z,6.21
2019-04-28T04:42:43.874Z,6.19
2019-04-28T04:43:43.871Z,6.27
2019-04-28T04:44:43.856Z,6.33
2019-04-28T04:45:43.843Z,6.21
2019-04-28T04:46:43.843Z,6.30
2019-04-28T04:47:43.820Z,6.36
2019-04-28T04:48:43.816Z,6.40
2019-04-28T04:49:43.810Z,6.30
2019-04-28T04:50:43.789Z,6.36
2019-04-28T04:51:44.108Z,6.38
2019-04-28T04:52:43.781Z,6.43
2019-04-28T04:53:43.755Z,6.39
2019-04-28T04:54:43.754Z,6.45
2019-04-28T04:55:43.733Z,6.45
2019-04-28T04:56:43.723Z,6.35
2019-04-28T04:57:43.720Z,6.36
2019-04-28T04:58:43.704Z,6.32
2019-04-28T04:59:43.701Z,6.28
2019-04-28T05:00:43.680Z,6.32
2019-04-28T05:01:43.671Z,6.35
2019-04-28T05:02:51.206Z,6.35
2019-04-28T05:03:44.652Z,6.36
2019-04-28T05:04:43.646Z,6.36
2019-04-28T05:05:43.627Z,6.30
2019-04-28T05:06:43.616Z,6.33
2019-04-28T05:07:43.611Z,6.36
2019-04-28T05:08:43.595Z,6.28
2019-04-28T05:09:43.604Z,6.38
2019-04-28T05:10:43.574Z,6.33
2019-04-28T05:11:43.562Z,6.24
2019-04-28T05:12:43.552Z,6.27
2019-04-28T05:13:43.542Z,6.21
2019-04-28T05:14:43.541Z,6.35
2019-04-28T05:15:43.533Z,6.19
2019-04-28T05:16:43.511Z,6.21
2019-04-28T05:17:43.499Z,6.33
2019-04-28T05:18:43.493Z,6.35
2019-04-28T05:19:43.490Z,6.39
2019-04-28T05:20:43.466Z,6.42
2019-04-28T05:21:43.466Z,6.38
2019-04-28T05:22:43.446Z,6.33
2019-04-28T05:23:43.436Z,6.30
2019-04-28T05:24:46.349Z,6.24
2019-04-28T05:25:44.413Z,6.39
2019-04-28T05:26:47.854Z,6.39
2019-04-28T05:27:44.398Z,6.32
2019-04-28T05:28:50.539Z,6.36
2019-04-28T05:29:44.380Z,6.38
2019-04-28T05:30:43.363Z,6.30
2019-04-28T05:31:43.350Z,6.27
2019-04-28T05:32:49.560Z,6.24
2019-04-28T05:33:44.333Z,6.30
2019-04-28T05:34:46.677Z,6.25
2019-04-28T05:35:43.311Z,6.25
2019-04-28T05:36:44.707Z,6.27
2019-04-28T05:37:43.287Z,6.25
2019-04-28T05:38:43.275Z,6.20
2019-04-28T05:39:43.284Z,6.25
2019-04-28T05:40:43.253Z,6.25
2019-04-28T05:41:43.243Z,6.27
2019-04-28T05:42:43.231Z,6.17
2019-04-28T05:43:43.222Z,6.19
2019-04-28T05:44:43.234Z,6.19
2019-04-28T05:45:43.213Z,6.24
2019-04-28T05:46:43.189Z,6.21
2019-04-28T05:47:43.181Z,6.19
2019-04-28T05:48:43.169Z,6.17
2019-04-28T05:49:43.157Z,6.11
2019-04-28T05:50:43.156Z,6.08
2019-04-28T05:51:43.147Z,6.13
2019-04-28T05:52:43.129Z,5.99
2019-04-28T05:53:43.114Z,6.05
2019-04-28T05:54:43.104Z,6.05
2019-04-28T05:55:43.102Z,6.02
2019-04-28T05:56:43.083Z,5.95
2019-04-28T05:57:43.081Z,5.95
2019-04-28T05:58:43.061Z,5.90
2019-04-28T05:59:43.050Z,5.88
2019-04-28T06:00:43.050Z,5.88
2019-04-28T06:01:43.030Z,5.92
2019-04-28T06:02:55.475Z,5.85
2019-04-28T06:03:44.017Z,5.92
2019-04-28T06:04:42.997Z,5.96
2019-04-28T06:05:43.009Z,5.93
2019-04-28T06:06:42.977Z,5.90
2019-04-28T06:07:42.965Z,5.92
2019-04-28T06:08:42.968Z,5.90
2019-04-28T06:09:42.943Z,5.93
2019-04-28T06:10:42.942Z,5.95
2019-04-28T06:11:42.922Z,5.93
2019-04-28T06:12:42.912Z,6.02
2019-04-28T06:13:42.905Z,6.06
2019-04-28T06:14:42.895Z,5.98
2019-04-28T06:15:42.892Z,6.08
2019-04-28T06:16:42.871Z,5.99
2019-04-28T06:17:42.860Z,6.02
2019-04-28T06:18:42.849Z,5.98
2019-04-28T06:19:42.836Z,5.99
2019-04-28T06:20:42.846Z,6.01
2019-04-28T06:21:42.866Z,5.99
2019-04-28T06:22:42.812Z,6.01
2019-04-28T06:23:42.796Z,5.96
2019-04-28T06:24:42.783Z,6.01
2019-04-28T06:25:42.783Z,5.92
2019-04-28T06:26:42.762Z,5.99
2019-04-28T06:27:42.756Z,5.98
2019-04-28T06:28:42.744Z,5.98
2019-04-28T06:29:42.731Z,6.05
2019-04-28T06:30:42.730Z,6.10
2019-04-28T06:31:42.708Z,5.99
2019-04-28T06:32:42.698Z,6.08
2019-04-28T06:33:44.528Z,6.10
2019-04-28T06:34:42.683Z,6.20
2019-04-28T06:35:42.676Z,6.25
2019-04-28T06:36:42.657Z,6.36
2019-04-28T06:37:42.645Z,6.45
2019-04-28T06:38:42.634Z,6.57
2019-04-28T06:39:42.624Z,6.76
2019-04-28T06:40:42.636Z,6.83
2019-04-28T06:41:42.604Z,7.14
2019-04-28T06:42:42.590Z,7.15
2019-04-28T06:43:42.580Z,7.21
2019-04-28T06:44:42.571Z,7.41
2019-04-28T06:45:42.559Z,7.47
2019-04-28T06:46:42.572Z,7.37
2019-04-28T06:47:42.536Z,7.45
2019-04-28T06:48:42.526Z,7.55
2019-04-28T06:49:42.513Z,7.60
2019-04-28T06:50:42.504Z,7.63
2019-04-28T06:51:42.504Z,7.62
2019-04-28T06:52:42.489Z,7.54
2019-04-28T06:53:42.477Z,7.48
2019-04-28T06:54:42.465Z,7.41
2019-04-28T06:55:42.449Z,7.44
2019-04-28T06:56:42.449Z,7.36
2019-04-28T06:57:42.428Z,7.99
2019-04-28T06:58:42.416Z,9.34
2019-04-28T06:59:42.406Z,10.49
2019-04-28T07:00:42.399Z,11.27
2019-04-28T07:01:42.394Z,11.20
2019-04-28T07:02:42.373Z,10.49
2019-04-28T07:03:42.363Z,9.98
2019-04-28T07:04:42.354Z,9.49
2019-04-28T07:05:42.341Z,9.20
2019-04-28T07:06:42.345Z,9.20
2019-04-28T07:07:42.321Z,9.17
2019-04-28T07:08:42.307Z,9.23
2019-04-28T07:09:42.302Z,9.08
2019-04-28T07:10:42.291Z,8.89
2019-04-28T07:11:42.288Z,8.88
2019-04-28T07:12:42.270Z,8.88
2019-04-28T07:13:42.254Z,8.93
2019-04-28T07:14:42.248Z,9.13
2019-04-28T07:15:42.233Z,8.98
2019-04-28T07:16:42.231Z,8.79
2019-04-28T07:17:42.211Z,8.73
2019-04-28T07:18:42.204Z,8.67
2019-04-28T07:19:42.191Z,8.71
2019-04-28T07:20:42.188Z,8.50
2019-04-28T07:21:42.176Z,8.36
2019-04-28T07:22:42.155Z,8.42
2019-04-28T07:23:42.146Z,8.27
2019-04-28T07:24:44.790Z,8.21
2019-04-28T07:25:42.149Z,8.13
2019-04-28T07:26:42.122Z,8.24
2019-04-28T07:27:42.106Z,8.28
2019-04-28T07:28:42.091Z,8.47
2019-04-28T07:29:42.080Z,9.17
2019-04-28T07:30:42.069Z,10.20
2019-04-28T07:31:42.083Z,10.25
2019-04-28T07:32:42.047Z,11.51
2019-04-28T07:33:42.036Z,12.71
2019-04-28T07:34:42.027Z,13.53
2019-04-28T07:35:42.014Z,14.20
2019-04-28T07:36:42.003Z,12.81
2019-04-28T07:37:42.010Z,11.60
2019-04-28T07:38:41.983Z,10.80
2019-04-28T07:39:41.973Z,10.51
2019-04-28T07:40:41.959Z,10.25
2019-04-28T07:41:41.950Z,10.10
2019-04-28T07:42:41.951Z,10.09
2019-04-28T07:43:41.928Z,10.07
2019-04-28T07:44:41.920Z,9.96
2019-04-28T07:45:41.965Z,9.93
2019-04-28T07:46:41.911Z,9.88
2019-04-28T07:47:41.899Z,9.78
2019-04-28T07:48:41.876Z,9.75
2019-04-28T07:49:41.899Z,9.74
2019-04-28T07:50:41.895Z,9.81
2019-04-28T07:51:41.853Z,9.91
2019-04-28T07:52:41.842Z,9.65
2019-04-28T07:53:41.824Z,9.49
2019-04-28T07:54:41.809Z,9.24
2019-04-28T07:55:41.798Z,9.24
2019-04-28T07:56:41.788Z,9.42
2019-04-28T07:57:41.803Z,9.49
2019-04-28T07:58:41.764Z,9.56
2019-04-28T07:59:41.752Z,9.63
2019-04-28T08:00:41.757Z,9.58
2019-04-28T08:01:41.731Z,9.49
2019-04-28T08:02:41.737Z,9.52
2019-04-28T08:03:49.248Z,9.59
2019-04-28T08:04:42.696Z,9.80
2019-04-28T08:05:41.687Z,9.85
2019-04-28T08:06:41.676Z,10.02
2019-04-28T08:07:41.677Z,10.06
2019-04-28T08:08:41.659Z,10.07
2019-04-28T08:09:41.644Z,10.07
2019-04-28T08:10:41.633Z,10.14
2019-04-28T08:11:41.622Z,10.18
2019-04-28T08:12:41.618Z,10.10
2019-04-28T08:13:41.599Z,10.17
2019-04-28T08:14:41.588Z,10.18
2019-04-28T08:15:41.623Z,10.18
2019-04-28T08:16:41.571Z,10.36
2019-04-28T08:17:41.570Z,10.63
2019-04-28T08:18:41.551Z,10.86
2019-04-28T08:19:41.554Z,11.27
2019-04-28T08:20:41.524Z,11.28
2019-04-28T08:21:41.513Z,11.27
2019-04-28T08:22:41.512Z,11.42
2019-04-28T08:23:47.231Z,11.49
2019-04-28T08:24:42.484Z,11.72
2019-04-28T08:25:41.470Z,12.16
2019-04-28T08:26:41.462Z,12.38
2019-04-28T08:27:41.463Z,12.70
2019-04-28T08:28:41.440Z,13.24
2019-04-28T08:29:41.423Z,13.01
2019-04-28T08:30:41.415Z,12.84
2019-04-28T08:31:41.401Z,13.06
2019-04-28T08:32:41.401Z,12.70
2019-04-28T08:33:41.382Z,12.48
2019-04-28T08:34:41.370Z,12.63
2019-04-28T08:35:41.360Z,12.54
2019-04-28T08:36:41.347Z,12.41
2019-04-28T08:37:41.369Z,12.73
2019-04-28T08:38:41.327Z,12.95
2019-04-28T08:39:41.318Z,13.01
2019-04-28T08:40:41.316Z,12.70
2019-04-28T08:41:41.295Z,12.43
2019-04-28T08:42:41.299Z,12.51
2019-04-28T08:43:41.273Z,12.52
2019-04-28T08:44:41.260Z,12.56
2019-04-28T08:45:41.280Z,12.52
2019-04-28T08:46:41.239Z,12.54
2019-04-28T08:47:41.256Z,12.51
2019-04-28T08:48:41.216Z,12.55
2019-04-28T08:49:41.210Z,12.31
2019-04-28T08:50:41.194Z,12.38
2019-04-28T08:51:41.187Z,12.26
2019-04-28T08:52:41.175Z,12.22
2019-04-28T08:53:41.188Z,12.37
2019-04-28T08:54:41.153Z,12.51
2019-04-28T08:55:41.147Z,12.92
2019-04-28T08:56:41.130Z,13.50
2019-04-28T08:57:41.126Z,14.13
2019-04-28T08:58:41.120Z,13.80
2019-04-28T08:59:41.118Z,13.65
2019-04-28T09:00:41.085Z,13.36
2019-04-28T09:01:41.077Z,13.50
2019-04-28T09:02:41.066Z,13.16
2019-04-28T09:03:41.063Z,12.96
2019-04-28T09:04:41.052Z,13.03
2019-04-28T09:05:41.031Z,12.44
2019-04-28T09:06:41.024Z,11.93
2019-04-28T09:07:41.011Z,11.45
2019-04-28T09:08:41.006Z,11.12
2019-04-28T09:09:40.988Z,10.63
2019-04-28T09:10:40.977Z,10.31
2019-04-28T09:11:40.965Z,9.93
2019-04-28T09:12:40.989Z,9.50
2019-04-28T09:13:43.692Z,9.30
2019-04-28T09:14:40.932Z,9.12
2019-04-28T09:15:40.928Z,8.89
2019-04-28T09:16:40.908Z,8.73
2019-04-28T09:17:40.899Z,8.63
2019-04-28T09:18:40.901Z,8.60
2019-04-28T09:19:42.414Z,8.39
2019-04-28T09:20:40.864Z,8.34
2019-04-28T09:21:40.896Z,8.29
2019-04-28T09:22:40.845Z,8.21
2019-04-28T09:23:40.848Z,8.07
2019-04-28T09:24:40.827Z,8.04
2019-04-28T09:25:40.811Z,8.00
2019-04-28T09:26:40.804Z,8.02
2019-04-28T09:27:40.789Z,8.18
2019-04-28T09:28:40.786Z,8.13
2019-04-28T09:29:40.769Z,8.25
2019-04-28T09:30:40.759Z,8.31
2019-04-28T09:31:40.772Z,8.25
2019-04-28T09:32:40.737Z,8.28
2019-04-28T09:33:40.749Z,8.28
2019-04-28T09:34:40.713Z,8.32
2019-04-28T09:35:40.706Z,8.47
2019-04-28T09:36:40.690Z,8.34
2019-04-28T09:37:40.681Z,8.42
2019-04-28T09:38:40.672Z,8.54
2019-04-28T09:39:40.668Z,8.60
2019-04-28T09:40:40.646Z,8.79
2019-04-28T09:41:40.636Z,8.86
2019-04-28T09:42:40.625Z,8.70
2019-04-28T09:43:40.614Z,8.93
2019-04-28T09:44:40.615Z,9.15
2019-04-28T09:45:40.594Z,9.35
2019-04-28T09:46:40.614Z,9.45
2019-04-28T09:47:40.580Z,9.49
2019-04-28T09:48:40.559Z,9.56
2019-04-28T09:49:40.561Z,9.91
2019-04-28T09:50:40.536Z,10.49
2019-04-28T09:51:40.527Z,11.24
2019-04-28T09:52:40.519Z,11.38
2019-04-28T09:53:40.554Z,11.54
2019-04-28T09:54:40.531Z,11.33
2019-04-28T09:55:40.485Z,11.27
2019-04-28T09:56:40.477Z,11.36
2019-04-28T09:57:40.463Z,11.19
2019-04-28T09:58:40.450Z,12.08
2019-04-28T09:59:40.492Z,12.54
2019-04-28T10:00:40.428Z,12.41
2019-04-28T10:01:40.427Z,12.16
2019-04-28T10:02:40.408Z,12.21
2019-04-28T10:03:40.401Z,12.31
2019-04-28T10:04:41.669Z,12.61
2019-04-28T10:05:40.380Z,12.55
2019-04-28T10:06:40.388Z,12.55
2019-04-28T10:07:40.353Z,12.15
2019-04-28T10:08:40.379Z,12.01
2019-04-28T10:09:40.352Z,11.97
2019-04-28T10:10:40.326Z,11.79
2019-04-28T10:11:40.311Z,11.64
2019-04-28T10:12:40.303Z,11.56
2019-04-28T10:13:40.286Z,11.56
2019-04-28T10:14:40.282Z,11.19
2019-04-28T10:15:40.287Z,10.60
2019-04-28T10:16:40.251Z,10.69
2019-04-28T10:17:40.248Z,10.55
2019-04-28T10:18:40.235Z,10.51
2019-04-28T10:19:40.229Z,10.43
2019-04-28T10:20:40.212Z,10.14
2019-04-28T10:21:40.205Z,10.17
2019-04-28T10:22:40.184Z,10.14
2019-04-28T10:23:40.174Z,10.17
2019-04-28T10:24:40.194Z,9.99
2019-04-28T10:25:40.157Z,9.73
2019-04-28T10:26:40.156Z,9.67
2019-04-28T10:27:40.131Z,9.49
2019-04-28T10:28:40.121Z,9.48
2019-04-28T10:29:40.133Z,9.19
2019-04-28T10:30:40.098Z,8.97
2019-04-28T10:31:40.090Z,8.61
2019-04-28T10:32:40.076Z,8.34
2019-04-28T10:33:40.065Z,8.17
2019-04-28T10:34:40.063Z,7.94
2019-04-28T10:35:40.050Z,7.81
2019-04-28T10:36:40.032Z,7.54
2019-04-28T10:37:40.034Z,7.33
2019-04-28T10:38:40.011Z,7.33
2019-04-28T10:39:40.009Z,7.26
2019-04-28T10:40:39.991Z,7.30
2019-04-28T10:41:39.978Z,7.32
2019-04-28T10:42:39.968Z,7.30
2019-04-28T10:43:39.975Z,7.26
2019-04-28T10:44:39.964Z,7.24
2019-04-28T10:45:39.936Z,7.27
2019-04-28T10:46:39.925Z,7.14
2019-04-28T10:47:39.912Z,7.16
2019-04-28T10:48:39.903Z,7.15
2019-04-28T10:49:39.890Z,7.18
2019-04-28T10:50:39.902Z,7.14
2019-04-28T10:51:39.880Z,7.32
2019-04-28T10:52:39.859Z,7.24
2019-04-28T10:53:39.857Z,7.26
2019-04-28T10:54:39.838Z,7.24
2019-04-28T10:55:39.858Z,7.42
2019-04-28T10:56:39.830Z,7.42
2019-04-28T10:57:39.809Z,7.29
2019-04-28T10:58:39.793Z,7.42
2019-04-28T10:59:39.783Z,7.57
2019-04-28T11:00:39.782Z,7.77
2019-04-28T11:01:39.765Z,7.96
2019-04-28T11:02:39.751Z,8.14
2019-04-28T11:03:39.745Z,8.00
2019-04-28T11:04:39.730Z,8.28
2019-04-28T11:05:39.728Z,8.40
2019-04-28T11:06:39.719Z,8.60
2019-04-28T11:07:39.718Z,8.80
2019-04-28T11:08:39.689Z,8.94
2019-04-28T11:09:39.676Z,8.83
2019-04-28T11:10:39.672Z,8.71
2019-04-28T11:11:39.732Z,8.73
2019-04-28T11:12:39.643Z,8.88
2019-04-28T11:13:39.636Z,8.89
2019-04-28T11:14:39.619Z,8.68
2019-04-28T11:15:39.627Z,8.76
2019-04-28T11:16:39.598Z,8.86
2019-04-28T11:17:39.589Z,8.97
2019-04-28T11:18:39.645Z,8.96
2019-04-28T11:19:39.567Z,8.93
2019-04-28T11:20:39.571Z,8.89
2019-04-28T11:21:39.556Z,9.13
2019-04-28T11:22:39.553Z,9.24
2019-04-28T11:23:39.521Z,9.37
2019-04-28T11:24:39.511Z,9.41
2019-04-28T11:25:39.550Z,9.34
2019-04-28T11:26:39.496Z,9.23
2019-04-28T11:27:39.488Z,9.38
2019-04-28T11:28:39.469Z,9.27
2019-04-28T11:29:39.457Z,9.17
2019-04-28T11:30:39.490Z,9.23
2019-04-28T11:31:39.436Z,9.10
2019-04-28T11:32:39.430Z,9.12
2019-04-28T11:33:39.414Z,9.16
2019-04-28T11:34:39.401Z,8.94
2019-04-28T11:35:39.408Z,8.79
2019-04-28T11:36:39.387Z,8.88
2019-04-28T11:37:39.376Z,9.10
2019-04-28T11:38:39.359Z,9.24
2019-04-28T11:39:39.350Z,9.04
2019-04-28T11:40:39.404Z,8.98
2019-04-28T11:41:39.346Z,9.03
2019-04-28T11:42:39.314Z,8.98
2019-04-28T11:43:39.319Z,9.08
2019-04-28T11:44:39.294Z,9.04
2019-04-28T11:45:39.358Z,8.83
2019-04-28T11:46:39.283Z,8.93
2019-04-28T11:47:39.328Z,8.89
2019-04-28T11:48:39.255Z,8.71
2019-04-28T11:49:39.261Z,8.79
2019-04-28T11:50:39.231Z,8.83
2019-04-28T11:51:39.230Z,8.98
2019-04-28T11:52:39.245Z,9.06
2019-04-28T11:53:39.200Z,9.10
2019-04-28T11:54:39.189Z,9.22
2019-04-28T11:55:39.175Z,9.60
2019-04-28T11:56:41.762Z,9.99
2019-04-28T11:57:39.157Z,10.29
2019-04-28T11:58:39.148Z,10.13
2019-04-28T11:59:39.143Z,10.42
2019-04-28T12:00:39.120Z,10.66
2019-04-28T12:01:39.119Z,10.52
2019-04-28T12:02:39.103Z,10.69
2019-04-28T12:03:39.092Z,11.19
2019-04-28T12:04:39.127Z,11.45
2019-04-28T12:05:39.066Z,11.64
2019-04-28T12:06:39.085Z,12.29
2019-04-28T12:07:39.046Z,12.26
2019-04-28T12:08:39.045Z,12.00
2019-04-28T12:09:39.024Z,11.60
2019-04-28T12:10:39.012Z,11.56
2019-04-28T12:11:39.014Z,11.57
2019-04-28T12:12:39.015Z,11.33
2019-04-28T12:13:38.991Z,11.51
2019-04-28T12:14:38.982Z,11.59
2019-04-28T12:15:38.958Z,11.82
2019-04-28T12:16:39.010Z,12.13
2019-04-28T12:17:38.939Z,12.07
2019-04-28T12:18:38.928Z,12.54
2019-04-28T12:19:38.951Z,12.34
2019-04-28T12:20:38.913Z,12.19
2019-04-28T12:21:38.912Z,11.90
2019-04-28T12:22:38.881Z,11.57
2019-04-28T12:23:38.866Z,11.36
2019-04-28T12:24:38.857Z,11.08
2019-04-28T12:25:38.886Z,11.24
2019-04-28T12:26:38.848Z,11.42
2019-04-28T12:27:38.838Z,11.28
2019-04-28T12:28:38.819Z,11.49
2019-04-28T12:29:38.803Z,11.60
2019-04-28T12:30:38.792Z,11.64
2019-04-28T12:31:38.792Z,11.48
2019-04-28T12:32:38.804Z,11.56
2019-04-28T12:33:38.761Z,11.62
2019-04-28T12:34:38.758Z,11.59
2019-04-28T12:35:47.701Z,11.62
2019-04-28T12:36:39.755Z,11.85
2019-04-28T12:37:38.714Z,11.97
2019-04-28T12:38:38.709Z,11.88
2019-04-28T12:39:38.694Z,11.88
2019-04-28T12:40:38.680Z,11.88
2019-04-28T12:41:38.672Z,11.82
2019-04-28T12:42:38.673Z,11.75
2019-04-28T12:43:38.645Z,11.74
2019-04-28T12:44:38.638Z,12.36
2019-04-28T12:45:38.624Z,12.96
2019-04-28T12:46:38.620Z,13.39
2019-04-28T12:47:38.615Z,13.94
2019-04-28T12:48:38.608Z,14.01
2019-04-28T12:49:38.583Z,14.16
2019-04-28T12:50:38.570Z,13.62
2019-04-28T12:51:38.558Z,13.19
2019-04-28T12:52:38.558Z,13.01
2019-04-28T12:53:38.547Z,12.48
2019-04-28T12:54:38.544Z,12.41
2019-04-28T12:55:38.552Z,12.19
2019-04-28T12:56:38.507Z,12.07
2019-04-28T12:57:38.517Z,11.79
2019-04-28T12:58:38.482Z,11.59
2019-04-28T12:59:38.472Z,11.51
2019-04-28T13:00:38.458Z,11.39
2019-04-28T13:01:38.472Z,11.49
2019-04-28T13:02:38.448Z,11.48
2019-04-28T13:03:38.430Z,11.51
2019-04-28T13:04:38.418Z,11.56
2019-04-28T13:05:38.416Z,11.57
2019-04-28T13:06:38.398Z,11.51
2019-04-28T13:07:38.393Z,11.44
2019-04-28T13:08:38.372Z,11.35
2019-04-28T13:09:38.399Z,11.30
2019-04-28T13:10:38.350Z,11.21
2019-04-28T13:11:38.339Z,11.41
2019-04-28T13:12:38.339Z,11.44